createdAt,value
2023-01-19T00:00:54.239Z,99.99
2023-01-19T00:01:54.292Z,99.99
2023-01-19T00:02:54.230Z,99.99
2023-01-19T00:03:54.339Z,99.99
2023-01-19T00:05:15.184Z,99.99
2023-01-19T00:05:54.233Z,99.99
2023-01-19T00:06:54.153Z,99.99
2023-01-19T00:07:54.128Z,99.99
2023-01-19T00:08:54.106Z,99.99
2023-01-19T00:09:54.103Z,99.99
2023-01-19T00:11:15.111Z,99.99
2023-01-19T00:11:54.087Z,99.99
2023-01-19T00:12:54.057Z,99.99
2023-01-19T00:13:54.046Z,99.99
2023-01-19T00:14:54.029Z,99.99
2023-01-19T00:15:54.021Z,99.99
2023-01-19T00:17:15.003Z,99.99
2023-01-19T00:17:53.980Z,99.99
2023-01-19T00:18:53.967Z,99.99
2023-01-19T00:19:54.009Z,99.99
2023-01-19T00:20:56.552Z,99.99
2023-01-19T00:21:53.932Z,99.99
2023-01-19T00:23:14.899Z,99.99
2023-01-19T00:23:53.884Z,99.99
2023-01-19T00:24:53.868Z,99.99
2023-01-19T00:25:53.957Z,99.99
2023-01-19T00:26:53.854Z,99.99
2023-01-19T00:27:53.845Z,99.99
2023-01-19T00:29:14.843Z,99.99
2023-01-19T00:29:53.794Z,99.99
2023-01-19T00:30:53.840Z,99.99
2023-01-19T00:31:53.762Z,99.99
2023-01-19T00:32:53.751Z,99.99
2023-01-19T00:33:53.726Z,99.99
2023-01-19T00:35:14.719Z,99.99
2023-01-19T00:35:53.700Z,99.99
2023-01-19T00:36:53.683Z,99.99
2023-01-19T00:37:53.665Z,99.99
2023-01-19T00:38:53.657Z,99.99
2023-01-19T00:39:53.642Z,99.99
2023-01-19T00:41:14.633Z,99.99
2023-01-19T00:41:53.610Z,99.99
2023-01-19T00:42:53.595Z,99.99
2023-01-19T00:43:53.577Z,99.99
2023-01-19T00:44:53.566Z,99.99
2023-01-19T00:45:53.650Z,99.99
2023-01-19T00:47:14.535Z,99.99
2023-01-19T00:47:53.515Z,99.99
2023-01-19T00:48:53.500Z,99.99
2023-01-19T00:49:53.488Z,99.99
2023-01-19T00:50:53.471Z,99.99
2023-01-19T00:51:53.453Z,99.99
2023-01-19T00:53:14.453Z,99.99
2023-01-19T00:53:53.425Z,99.99
2023-01-19T00:54:53.409Z,99.99
2023-01-19T00:55:53.394Z,99.99
2023-01-19T00:56:53.396Z,99.99
2023-01-19T00:57:53.369Z,99.99
2023-01-19T00:59:14.354Z,99.99
2023-01-19T00:59:53.338Z,99.99
2023-01-19T01:00:53.442Z,99.99
2023-01-19T01:01:53.620Z,99.99
2023-01-19T01:02:53.365Z,99.99
2023-01-19T01:03:53.274Z,99.99
2023-01-19T01:05:14.267Z,99.99
2023-01-19T01:05:53.238Z,99.99
2023-01-19T01:06:53.238Z,99.99
2023-01-19T01:07:53.205Z,99.99
2023-01-19T01:08:53.193Z,99.99
2023-01-19T01:09:53.173Z,99.99
2023-01-19T01:11:14.176Z,99.99
2023-01-19T01:11:53.150Z,99.99
2023-01-19T01:12:57.049Z,99.99
2023-01-19T01:13:53.115Z,99.99
2023-01-19T01:14:53.102Z,99.99
2023-01-19T01:15:53.092Z,99.99
2023-01-19T01:17:14.092Z,99.99
2023-01-19T01:17:53.098Z,99.99
2023-01-19T01:18:53.043Z,99.99
2023-01-19T01:19:53.026Z,99.99
2023-01-19T01:20:55.237Z,99.99
2023-01-19T01:21:52.994Z,99.99
2023-01-19T01:23:13.981Z,99.99
2023-01-19T01:23:52.962Z,99.99
2023-01-19T01:24:52.962Z,99.99
2023-01-19T01:25:52.944Z,99.99
2023-01-19T01:26:52.920Z,99.99
2023-01-19T01:27:52.901Z,99.99
2023-01-19T01:29:13.883Z,99.99
2023-01-19T01:29:52.869Z,99.99
2023-01-19T01:30:52.862Z,99.99
2023-01-19T01:31:52.866Z,99.99
2023-01-19T01:32:52.868Z,99.99
2023-01-19T01:33:52.815Z,99.99
2023-01-19T01:35:13.796Z,99.99
2023-01-19T01:35:52.856Z,99.99
2023-01-19T01:36:52.780Z,99.99
2023-01-19T01:37:52.743Z,99.99
2023-01-19T01:38:52.725Z,99.99
2023-01-19T01:39:52.709Z,99.99
2023-01-19T01:41:13.704Z,99.99
2023-01-19T01:41:52.685Z,99.99
2023-01-19T01:42:52.685Z,99.99
2023-01-19T01:43:52.650Z,99.99
2023-01-19T01:44:52.656Z,99.99
2023-01-19T01:45:52.676Z,99.99
2023-01-19T01:47:13.614Z,99.99
2023-01-19T01:47:52.585Z,99.99
2023-01-19T01:48:52.595Z,99.99
2023-01-19T01:49:52.556Z,99.99
2023-01-19T01:50:52.545Z,99.99
2023-01-19T01:51:52.529Z,99.99
2023-01-19T01:53:13.522Z,99.99
2023-01-19T01:53:52.505Z,99.99
2023-01-19T01:54:52.485Z,99.99
2023-01-19T01:55:52.467Z,99.99
2023-01-19T01:56:52.455Z,99.99
2023-01-19T01:57:52.437Z,99.99
2023-01-19T01:59:13.433Z,99.99
2023-01-19T01:59:52.404Z,99.99
2023-01-19T02:00:52.489Z,99.99
2023-01-19T02:01:52.516Z,99.99
2023-01-19T02:02:52.410Z,99.99
2023-01-19T02:03:52.340Z,99.99
2023-01-19T02:05:13.326Z,99.99
2023-01-19T02:05:52.310Z,99.99
2023-01-19T02:06:52.296Z,99.99
2023-01-19T02:07:52.290Z,99.99
2023-01-19T02:08:52.275Z,99.81
2023-01-19T02:09:52.247Z,99.99
2023-01-19T02:11:13.232Z,99.60
2023-01-19T02:11:52.224Z,99.99
2023-01-19T02:12:52.204Z,99.99
2023-01-19T02:13:52.191Z,99.99
2023-01-19T02:14:52.168Z,99.96
2023-01-19T02:15:52.164Z,99.99
2023-01-19T02:17:13.148Z,99.96
2023-01-19T02:17:52.125Z,99.99
2023-01-19T02:18:52.114Z,99.91
2023-01-19T02:19:52.098Z,99.96
2023-01-19T02:20:52.087Z,99.96
2023-01-19T02:21:52.106Z,99.99
2023-01-19T02:23:13.050Z,99.91
2023-01-19T02:23:52.060Z,99.99
2023-01-19T02:24:52.021Z,99.70
2023-01-19T02:25:52.004Z,99.99
2023-01-19T02:26:51.990Z,99.99
2023-01-19T02:27:51.970Z,99.70
2023-01-19T02:29:12.973Z,99.91
2023-01-19T02:29:51.940Z,99.99
2023-01-19T02:30:51.967Z,99.91
2023-01-19T02:31:51.913Z,99.49
2023-01-19T02:32:51.937Z,99.81
2023-01-19T02:33:51.894Z,99.60
2023-01-19T02:35:12.872Z,99.28
2023-01-19T02:35:51.855Z,99.28
2023-01-19T02:36:51.834Z,99.28
2023-01-19T02:37:51.817Z,99.49
2023-01-19T02:38:51.800Z,99.55
2023-01-19T02:39:51.797Z,99.60
2023-01-19T02:41:12.777Z,99.70
2023-01-19T02:41:51.806Z,99.28
2023-01-19T02:42:51.746Z,99.49
2023-01-19T02:43:51.726Z,99.28
2023-01-19T02:44:51.707Z,99.18
2023-01-19T02:45:51.702Z,99.49
2023-01-19T02:47:12.690Z,99.39
2023-01-19T02:47:51.665Z,99.55
2023-01-19T02:48:51.649Z,99.39
2023-01-19T02:49:51.632Z,99.49
2023-01-19T02:50:51.621Z,99.39
2023-01-19T02:51:51.605Z,98.65
2023-01-19T02:53:12.587Z,98.97
2023-01-19T02:53:51.578Z,98.75
2023-01-19T02:54:51.555Z,99.18
2023-01-19T02:55:51.544Z,99.39
2023-01-19T02:56:51.531Z,99.28
2023-01-19T02:57:51.509Z,99.39
2023-01-19T02:59:12.502Z,99.39
2023-01-19T02:59:51.477Z,99.39
2023-01-19T03:00:51.502Z,99.28
2023-01-19T03:01:51.525Z,99.60
2023-01-19T03:02:51.459Z,99.39
2023-01-19T03:03:51.424Z,99.18
2023-01-19T03:05:12.404Z,99.28
2023-01-19T03:05:51.401Z,99.81
2023-01-19T03:06:51.374Z,99.75
2023-01-19T03:07:51.359Z,99.64
2023-01-19T03:08:51.338Z,99.64
2023-01-19T03:09:51.324Z,99.70
2023-01-19T03:11:12.338Z,99.75
2023-01-19T03:11:51.298Z,99.96
2023-01-19T03:12:51.283Z,99.60
2023-01-19T03:13:51.264Z,99.39
2023-01-19T03:14:51.248Z,99.49
2023-01-19T03:15:51.287Z,99.28
2023-01-19T03:17:12.220Z,99.49
2023-01-19T03:17:51.207Z,99.60
2023-01-19T03:18:51.184Z,99.49
2023-01-19T03:19:51.188Z,98.75
2023-01-19T03:20:51.175Z,98.86
2023-01-19T03:21:51.147Z,98.86
2023-01-19T03:23:12.144Z,98.86
2023-01-19T03:23:51.122Z,98.86
2023-01-19T03:24:51.090Z,98.97
2023-01-19T03:25:51.075Z,98.97
2023-01-19T03:26:51.058Z,99.18
2023-01-19T03:27:51.043Z,98.97
2023-01-19T03:29:12.043Z,99.64
2023-01-19T03:29:51.016Z,98.97
2023-01-19T03:30:51.056Z,99.01
2023-01-19T03:31:51.061Z,99.43
2023-01-19T03:32:50.974Z,99.33
2023-01-19T03:33:50.954Z,99.33
2023-01-19T03:35:11.937Z,99.28
2023-01-19T03:35:50.922Z,99.33
2023-01-19T03:36:50.920Z,99.64
2023-01-19T03:37:50.894Z,99.01
2023-01-19T03:38:50.874Z,99.33
2023-01-19T03:39:50.869Z,99.99
2023-01-19T03:41:11.868Z,99.85
2023-01-19T03:41:50.852Z,99.85
2023-01-19T03:42:50.813Z,99.64
2023-01-19T03:43:50.796Z,99.43
2023-01-19T03:44:50.780Z,99.75
2023-01-19T03:45:50.802Z,99.43
2023-01-19T03:47:11.757Z,99.64
2023-01-19T03:47:50.749Z,99.64
2023-01-19T03:48:50.741Z,99.75
2023-01-19T03:49:50.732Z,99.96
2023-01-19T03:50:50.685Z,99.54
2023-01-19T03:51:50.681Z,99.75
2023-01-19T03:53:11.659Z,99.60
2023-01-19T03:53:50.639Z,99.75
2023-01-19T03:54:50.650Z,99.85
2023-01-19T03:55:50.608Z,99.49
2023-01-19T03:56:50.597Z,99.75
2023-01-19T03:57:50.581Z,99.54
2023-01-19T03:59:11.566Z,99.39
2023-01-19T03:59:50.559Z,99.18
2023-01-19T04:00:50.558Z,98.91
2023-01-19T04:01:50.592Z,99.11
2023-01-19T04:02:50.558Z,98.91
2023-01-19T04:03:50.544Z,99.22
2023-01-19T04:05:11.534Z,99.07
2023-01-19T04:05:50.464Z,99.28
2023-01-19T04:06:50.441Z,99.07
2023-01-19T04:07:50.426Z,99.11
2023-01-19T04:08:50.411Z,98.97
2023-01-19T04:09:50.397Z,98.86
2023-01-19T04:11:11.384Z,99.07
2023-01-19T04:11:50.361Z,98.91
2023-01-19T04:12:50.352Z,98.80
2023-01-19T04:13:50.345Z,98.97
2023-01-19T04:14:50.315Z,99.11
2023-01-19T04:15:50.401Z,98.97
2023-01-19T04:17:11.282Z,99.28
2023-01-19T04:17:50.269Z,99.01
2023-01-19T04:18:50.256Z,98.97
2023-01-19T04:19:50.243Z,99.28
2023-01-19T04:20:50.222Z,99.18
2023-01-19T04:21:50.243Z,99.18
2023-01-19T04:23:11.197Z,99.43
2023-01-19T04:23:50.174Z,99.01
2023-01-19T04:24:50.168Z,98.69
2023-01-19T04:25:50.140Z,99.07
2023-01-19T04:26:50.127Z,99.22
2023-01-19T04:27:50.109Z,99.11
2023-01-19T04:29:11.103Z,99.01
2023-01-19T04:29:50.082Z,99.22
2023-01-19T04:30:50.168Z,98.80
2023-01-19T04:31:50.049Z,98.91
2023-01-19T04:32:50.051Z,99.43
2023-01-19T04:33:50.015Z,99.22
2023-01-19T04:35:11.008Z,99.22
2023-01-19T04:35:49.993Z,99.33
2023-01-19T04:36:49.975Z,99.33
2023-01-19T04:37:49.961Z,99.33
2023-01-19T04:38:49.963Z,98.80
2023-01-19T04:39:49.922Z,99.54
2023-01-19T04:41:10.911Z,99.85
2023-01-19T04:41:49.891Z,99.54
2023-01-19T04:42:49.920Z,99.54
2023-01-19T04:43:49.857Z,99.33
2023-01-19T04:44:49.846Z,99.64
2023-01-19T04:45:49.848Z,99.64
2023-01-19T04:47:10.819Z,99.75
2023-01-19T04:47:49.807Z,99.54
2023-01-19T04:48:49.799Z,99.75
2023-01-19T04:49:49.765Z,99.64
2023-01-19T04:50:49.755Z,99.75
2023-01-19T04:51:49.743Z,99.33
2023-01-19T04:53:10.733Z,99.43
2023-01-19T04:53:49.720Z,99.54
2023-01-19T04:54:49.688Z,99.54
2023-01-19T04:55:49.686Z,99.85
2023-01-19T04:56:49.678Z,98.91
2023-01-19T04:57:49.647Z,99.18
2023-01-19T04:59:10.644Z,99.18
2023-01-19T04:59:49.607Z,98.97
2023-01-19T05:00:49.637Z,99.01
2023-01-19T05:01:49.604Z,99.18
2023-01-19T05:02:49.601Z,99.18
2023-01-19T05:03:49.604Z,98.75
2023-01-19T05:05:10.536Z,99.18
2023-01-19T05:05:49.540Z,98.80
2023-01-19T05:06:49.511Z,98.55
2023-01-19T05:07:49.503Z,98.33
2023-01-19T05:08:49.473Z,98.86
2023-01-19T05:09:49.506Z,99.18
2023-01-19T05:11:10.442Z,99.28
2023-01-19T05:11:49.427Z,99.39
2023-01-19T05:12:49.409Z,98.55
2023-01-19T05:13:50.965Z,98.65
2023-01-19T05:14:49.383Z,99.49
2023-01-19T05:15:49.376Z,98.75
2023-01-19T05:17:10.348Z,98.65
2023-01-19T05:17:49.334Z,98.59
2023-01-19T05:18:49.311Z,98.75
2023-01-19T05:19:49.358Z,98.55
2023-01-19T05:20:49.282Z,99.33
2023-01-19T05:21:49.266Z,99.43
2023-01-19T05:23:10.289Z,98.75
2023-01-19T05:23:49.233Z,98.55
2023-01-19T05:24:49.224Z,99.07
2023-01-19T05:25:49.202Z,98.97
2023-01-19T05:26:49.182Z,99.01
2023-01-19T05:27:49.193Z,99.22
2023-01-19T05:29:10.154Z,99.43
2023-01-19T05:29:49.149Z,98.49
2023-01-19T05:30:49.169Z,98.91
2023-01-19T05:31:49.143Z,99.01
2023-01-19T05:32:49.094Z,98.80
2023-01-19T05:33:49.083Z,98.91
2023-01-19T05:35:10.067Z,99.01
2023-01-19T05:35:49.099Z,98.91
2023-01-19T05:36:49.037Z,99.01
2023-01-19T05:37:49.017Z,98.69
2023-01-19T05:38:48.997Z,98.38
2023-01-19T05:39:48.989Z,98.69
2023-01-19T05:41:09.968Z,98.80
2023-01-19T05:41:48.962Z,98.69
2023-01-19T05:42:48.953Z,99.01
2023-01-19T05:43:48.920Z,98.97
2023-01-19T05:44:48.909Z,98.80
2023-01-19T05:45:48.893Z,99.01
2023-01-19T05:47:09.874Z,99.07
2023-01-19T05:47:48.860Z,99.54
2023-01-19T05:48:48.838Z,99.49
2023-01-19T05:49:48.830Z,98.91
2023-01-19T05:50:48.809Z,98.86
2023-01-19T05:51:48.808Z,98.75
2023-01-19T05:53:09.782Z,99.01
2023-01-19T05:53:48.778Z,98.91
2023-01-19T05:54:48.747Z,98.86
2023-01-19T05:55:48.746Z,98.59
2023-01-19T05:56:48.731Z,98.69
2023-01-19T05:57:48.715Z,98.49
2023-01-19T05:59:09.698Z,98.69
2023-01-19T05:59:48.673Z,98.49
2023-01-19T06:00:48.694Z,98.91
2023-01-19T06:01:48.669Z,98.91
2023-01-19T06:02:48.686Z,98.59
2023-01-19T06:03:48.606Z,98.59
2023-01-19T06:05:09.621Z,98.49
2023-01-19T06:05:48.583Z,98.59
2023-01-19T06:06:48.566Z,98.13
2023-01-19T06:07:48.546Z,98.38
2023-01-19T06:08:48.523Z,98.07
2023-01-19T06:09:48.539Z,98.69
2023-01-19T06:11:09.513Z,98.59
2023-01-19T06:11:48.491Z,98.49
2023-01-19T06:12:48.483Z,98.95
2023-01-19T06:13:48.457Z,98.80
2023-01-19T06:14:48.454Z,98.74
2023-01-19T06:15:48.419Z,98.49
2023-01-19T06:17:09.407Z,98.63
2023-01-19T06:17:48.400Z,98.95
2023-01-19T06:18:48.379Z,99.27
2023-01-19T06:19:48.353Z,98.95
2023-01-19T06:20:48.339Z,98.85
2023-01-19T06:21:48.325Z,98.59
2023-01-19T06:23:09.310Z,99.37
2023-01-19T06:23:48.292Z,98.80
2023-01-19T06:24:48.276Z,98.85
2023-01-19T06:25:48.263Z,98.69
2023-01-19T06:26:48.271Z,98.91
2023-01-19T06:27:48.375Z,98.91
2023-01-19T06:29:09.215Z,98.49
2023-01-19T06:29:48.196Z,98.69
2023-01-19T06:30:48.195Z,98.75
2023-01-19T06:31:48.259Z,98.07
2023-01-19T06:32:48.151Z,98.02
2023-01-19T06:33:48.133Z,98.02
2023-01-19T06:35:09.130Z,97.81
2023-01-19T06:35:48.108Z,97.39
2023-01-19T06:36:48.084Z,97.60
2023-01-19T06:37:48.074Z,97.71
2023-01-19T06:38:48.064Z,97.28
2023-01-19T06:39:48.042Z,97.07
2023-01-19T06:41:09.023Z,96.97
2023-01-19T06:41:48.056Z,96.92
2023-01-19T06:42:47.996Z,96.71
2023-01-19T06:43:47.979Z,96.97
2023-01-19T06:44:47.964Z,96.86
2023-01-19T06:45:47.991Z,96.92
2023-01-19T06:47:14.599Z,96.71
2023-01-19T06:47:47.913Z,96.55
2023-01-19T06:48:47.903Z,96.50
2023-01-19T06:49:47.888Z,96.55
2023-01-19T06:50:47.865Z,96.50
2023-01-19T06:51:47.855Z,96.44
2023-01-19T06:53:08.838Z,96.55
2023-01-19T06:53:47.823Z,96.55
2023-01-19T06:54:47.825Z,96.44
2023-01-19T06:55:47.791Z,96.55
2023-01-19T06:56:47.769Z,96.65
2023-01-19T06:57:47.754Z,96.75
2023-01-19T06:59:08.752Z,96.65
2023-01-19T06:59:47.725Z,97.01
2023-01-19T07:00:47.741Z,96.91
2023-01-19T07:01:47.841Z,96.97
2023-01-19T07:02:47.675Z,96.86
2023-01-19T07:03:47.668Z,96.65
2023-01-19T07:05:08.650Z,96.86
2023-01-19T07:05:47.634Z,96.91
2023-01-19T07:06:47.618Z,96.86
2023-01-19T07:07:47.601Z,97.01
2023-01-19T07:08:47.595Z,97.07
2023-01-19T07:09:48.108Z,96.91
2023-01-19T07:11:23.174Z,96.91
2023-01-19T07:11:47.539Z,96.65
2023-01-19T07:12:47.517Z,96.80
2023-01-19T07:13:47.514Z,96.91
2023-01-19T07:14:47.507Z,96.91
2023-01-19T07:15:47.474Z,96.69
2023-01-19T07:17:08.461Z,96.75
2023-01-19T07:17:47.464Z,97.01
2023-01-19T07:18:47.425Z,96.91
2023-01-19T07:19:47.409Z,96.97
2023-01-19T07:20:47.388Z,96.91
2023-01-19T07:21:47.379Z,97.22
2023-01-19T07:23:08.365Z,97.01
2023-01-19T07:23:47.348Z,96.69
2023-01-19T07:24:47.343Z,97.53
2023-01-19T07:25:47.323Z,96.86
2023-01-19T07:26:47.296Z,97.11
2023-01-19T07:27:47.282Z,97.01
2023-01-19T07:29:08.283Z,96.97
2023-01-19T07:29:47.254Z,96.86
2023-01-19T07:30:47.337Z,96.75
2023-01-19T07:31:47.312Z,96.97
2023-01-19T07:32:47.210Z,96.75
2023-01-19T07:33:47.201Z,96.44
2023-01-19T07:35:08.174Z,95.91
2023-01-19T07:35:47.160Z,95.70
2023-01-19T07:36:47.219Z,96.02
2023-01-19T07:37:47.129Z,95.91
2023-01-19T07:38:47.111Z,96.23
2023-01-19T07:39:47.106Z,96.02
2023-01-19T07:41:08.080Z,95.81
2023-01-19T07:41:47.065Z,96.23
2023-01-19T07:42:47.055Z,95.87
2023-01-19T07:43:47.037Z,96.12
2023-01-19T07:44:47.017Z,96.02
2023-01-19T07:45:47.032Z,95.70
2023-01-19T07:47:08.050Z,95.81
2023-01-19T07:47:46.999Z,95.81
2023-01-19T07:48:46.957Z,95.66
2023-01-19T07:49:46.936Z,95.49
2023-01-19T07:50:46.920Z,95.24
2023-01-19T07:51:46.905Z,95.13
2023-01-19T07:53:07.907Z,95.45
2023-01-19T07:53:46.874Z,94.82
2023-01-19T07:54:46.870Z,94.92
2023-01-19T07:55:46.849Z,94.50
2023-01-19T07:56:46.836Z,95.24
2023-01-19T07:57:46.814Z,95.45
2023-01-19T07:59:07.801Z,95.24
2023-01-19T07:59:46.806Z,95.03
2023-01-19T08:00:46.764Z,95.03
2023-01-19T08:01:46.892Z,94.82
2023-01-19T08:02:46.740Z,94.60
2023-01-19T08:03:46.720Z,94.71
2023-01-19T08:05:07.710Z,94.35
2023-01-19T08:05:46.686Z,94.25
2023-01-19T08:06:46.676Z,94.56
2023-01-19T08:07:46.672Z,93.93
2023-01-19T08:08:46.653Z,94.04
2023-01-19T08:09:46.632Z,94.14
2023-01-19T08:11:07.637Z,94.04
2023-01-19T08:11:46.594Z,93.72
2023-01-19T08:12:46.591Z,93.30
2023-01-19T08:13:46.586Z,93.26
2023-01-19T08:14:46.548Z,93.51
2023-01-19T08:15:46.583Z,93.19
2023-01-19T08:17:07.521Z,93.09
2023-01-19T08:17:46.500Z,93.09
2023-01-19T08:18:46.482Z,93.26
2023-01-19T08:19:46.468Z,93.05
2023-01-19T08:20:46.457Z,93.30
2023-01-19T08:21:46.436Z,93.15
2023-01-19T08:23:07.442Z,92.73
2023-01-19T08:23:46.449Z,92.94
2023-01-19T08:24:47.608Z,92.73
2023-01-19T08:25:46.382Z,92.63
2023-01-19T08:26:46.371Z,92.52
2023-01-19T08:27:46.356Z,92.80
2023-01-19T08:29:07.336Z,93.05
2023-01-19T08:29:46.308Z,92.10
2023-01-19T08:30:46.443Z,92.38
2023-01-19T08:31:46.312Z,92.31
2023-01-19T08:32:46.281Z,92.48
2023-01-19T08:33:46.252Z,92.58
2023-01-19T08:35:07.277Z,92.69
2023-01-19T08:35:46.281Z,92.27
2023-01-19T08:36:46.227Z,92.06
2023-01-19T08:37:46.193Z,91.74
2023-01-19T08:38:46.197Z,91.43
2023-01-19T08:39:46.164Z,91.43
2023-01-19T08:41:07.151Z,91.74
2023-01-19T08:41:46.140Z,91.33
2023-01-19T08:42:46.113Z,91.74
2023-01-19T08:43:46.117Z,91.60
2023-01-19T08:44:57.394Z,91.85
2023-01-19T08:45:46.067Z,91.91
2023-01-19T08:47:07.106Z,91.71
2023-01-19T08:47:46.043Z,91.71
2023-01-19T08:48:46.022Z,91.49
2023-01-19T08:49:46.019Z,91.28
2023-01-19T08:50:45.990Z,91.07
2023-01-19T08:51:45.979Z,91.28
2023-01-19T08:53:06.974Z,90.86
2023-01-19T08:53:45.949Z,90.97
2023-01-19T08:54:45.933Z,90.97
2023-01-19T08:55:45.939Z,90.61
2023-01-19T08:56:45.902Z,90.09
2023-01-19T08:57:45.946Z,90.86
2023-01-19T08:59:10.406Z,90.44
2023-01-19T08:59:45.851Z,90.61
2023-01-19T09:00:45.835Z,90.09
2023-01-19T09:01:46.001Z,90.30
2023-01-19T09:02:45.827Z,90.40
2023-01-19T09:03:45.797Z,90.19
2023-01-19T09:05:06.776Z,90.78
2023-01-19T09:05:45.766Z,90.30
2023-01-19T09:06:45.751Z,90.25
2023-01-19T09:07:45.729Z,90.09
2023-01-19T09:08:45.715Z,90.40
2023-01-19T09:09:45.701Z,90.51
2023-01-19T09:11:06.699Z,90.47
2023-01-19T09:11:45.682Z,90.15
2023-01-19T09:12:45.648Z,90.19
2023-01-19T09:13:45.641Z,90.36
2023-01-19T09:14:45.632Z,90.89
2023-01-19T09:15:45.672Z,90.15
2023-01-19T09:17:06.590Z,90.47
2023-01-19T09:17:45.588Z,89.94
2023-01-19T09:18:45.565Z,89.52
2023-01-19T09:19:45.544Z,89.10
2023-01-19T09:20:45.538Z,89.69
2023-01-19T09:21:45.518Z,89.62
2023-01-19T09:23:06.515Z,89.62
2023-01-19T09:23:45.495Z,89.42
2023-01-19T09:24:45.471Z,88.96
2023-01-19T09:25:45.465Z,88.85
2023-01-19T09:26:45.492Z,89.48
2023-01-19T09:27:45.425Z,88.85
2023-01-19T09:29:06.425Z,89.27
2023-01-19T09:29:45.404Z,89.23
2023-01-19T09:30:45.429Z,89.02
2023-01-19T09:31:45.383Z,89.54
2023-01-19T09:32:45.351Z,88.81
2023-01-19T09:33:45.347Z,88.07
2023-01-19T09:35:06.329Z,88.49
2023-01-19T09:35:45.320Z,87.87
2023-01-19T09:36:45.290Z,88.35
2023-01-19T09:37:45.279Z,87.66
2023-01-19T09:38:45.322Z,88.04
2023-01-19T09:39:45.329Z,87.30
2023-01-19T09:41:06.242Z,87.30
2023-01-19T09:41:45.220Z,87.72
2023-01-19T09:42:45.207Z,87.51
2023-01-19T09:43:45.213Z,88.04
2023-01-19T09:44:45.267Z,87.30
2023-01-19T09:45:45.162Z,87.72
2023-01-19T09:47:06.146Z,87.93
2023-01-19T09:47:45.125Z,86.74
2023-01-19T09:48:45.114Z,86.95
2023-01-19T09:49:45.103Z,87.47
2023-01-19T09:50:45.081Z,87.37
2023-01-19T09:51:45.072Z,86.95
2023-01-19T09:53:06.064Z,87.68
2023-01-19T09:53:45.041Z,87.37
2023-01-19T09:54:45.033Z,86.43
2023-01-19T09:55:45.015Z,86.95
2023-01-19T09:56:44.987Z,86.49
2023-01-19T09:57:44.981Z,86.91
2023-01-19T09:59:05.965Z,86.70
2023-01-19T09:59:44.952Z,86.70
2023-01-19T10:00:44.990Z,86.07
2023-01-19T10:01:44.957Z,86.49
2023-01-19T10:02:44.933Z,86.70
2023-01-19T10:03:44.892Z,86.18
2023-01-19T10:05:05.882Z,86.49
2023-01-19T10:05:44.979Z,86.38
2023-01-19T10:06:44.849Z,85.86
2023-01-19T10:07:44.831Z,85.61
2023-01-19T10:08:44.813Z,86.14
2023-01-19T10:09:44.802Z,85.65
2023-01-19T10:11:05.791Z,85.75
2023-01-19T10:11:52.703Z,85.61
2023-01-19T10:12:44.754Z,85.61
2023-01-19T10:13:44.746Z,85.93
2023-01-19T10:14:44.724Z,85.41
2023-01-19T10:15:44.734Z,85.72
2023-01-19T10:17:05.704Z,85.93
2023-01-19T10:17:44.687Z,85.82
2023-01-19T10:18:44.669Z,86.14
2023-01-19T10:19:46.544Z,86.24
2023-01-19T10:20:44.638Z,85.47
2023-01-19T10:21:44.625Z,84.32
2023-01-19T10:23:05.610Z,84.95
2023-01-19T10:23:44.619Z,85.19
2023-01-19T10:24:44.589Z,84.84
2023-01-19T10:25:44.591Z,84.95
2023-01-19T10:26:44.561Z,84.74
2023-01-19T10:27:44.548Z,84.32
2023-01-19T10:29:05.569Z,84.84
2023-01-19T10:29:44.536Z,85.26
2023-01-19T10:30:44.537Z,84.70
2023-01-19T10:31:44.513Z,85.36
2023-01-19T10:32:44.467Z,84.74
2023-01-19T10:33:44.452Z,84.80
2023-01-19T10:35:05.435Z,84.07
2023-01-19T10:35:44.466Z,84.28
2023-01-19T10:36:44.414Z,84.59
2023-01-19T10:37:44.390Z,84.49
2023-01-19T10:38:44.377Z,84.28
2023-01-19T10:39:44.367Z,84.49
2023-01-19T10:41:05.345Z,84.17
2023-01-19T10:41:44.400Z,84.14
2023-01-19T10:42:44.357Z,83.93
2023-01-19T10:43:44.430Z,83.20
2023-01-19T10:44:44.326Z,83.30
2023-01-19T10:45:44.301Z,83.20
2023-01-19T10:47:05.274Z,82.36
2023-01-19T10:47:44.308Z,82.57
2023-01-19T10:48:44.287Z,82.99
2023-01-19T10:49:44.235Z,82.78
2023-01-19T10:50:44.232Z,82.78
2023-01-19T10:51:44.273Z,83.72
2023-01-19T10:53:05.654Z,83.26
2023-01-19T10:53:44.220Z,82.74
2023-01-19T10:54:44.191Z,82.53
2023-01-19T10:55:44.142Z,82.01
2023-01-19T10:56:44.139Z,82.22
2023-01-19T10:57:44.119Z,81.70
2023-01-19T10:59:05.133Z,81.38
2023-01-19T10:59:44.109Z,82.43
2023-01-19T11:00:44.098Z,82.43
2023-01-19T11:01:44.234Z,82.32
2023-01-19T11:02:44.073Z,82.50
2023-01-19T11:03:44.069Z,82.84
2023-01-19T11:05:05.080Z,82.50
2023-01-19T11:05:43.994Z,82.22
2023-01-19T11:06:43.981Z,82.50
2023-01-19T11:07:43.970Z,82.07
2023-01-19T11:08:43.947Z,82.12
2023-01-19T11:09:43.925Z,81.49
2023-01-19T11:11:04.926Z,81.76
2023-01-19T11:11:43.902Z,81.56
2023-01-19T11:12:43.885Z,81.87
2023-01-19T11:13:43.881Z,81.66
2023-01-19T11:14:43.864Z,81.97
2023-01-19T11:15:43.854Z,82.07
2023-01-19T11:17:04.833Z,82.60
2023-01-19T11:17:43.815Z,82.18
2023-01-19T11:18:43.814Z,82.18
2023-01-19T11:19:43.813Z,82.12
2023-01-19T11:20:43.800Z,81.87
2023-01-19T11:21:43.758Z,82.29
2023-01-19T11:23:04.748Z,82.60
2023-01-19T11:23:43.725Z,81.76
2023-01-19T11:24:43.734Z,82.39
2023-01-19T11:25:43.702Z,81.76
2023-01-19T11:26:43.693Z,81.97
2023-01-19T11:27:43.673Z,82.18
2023-01-19T11:29:04.664Z,81.41
2023-01-19T11:29:43.667Z,81.83
2023-01-19T11:30:43.659Z,81.31
2023-01-19T11:31:43.643Z,81.52
2023-01-19T11:32:43.604Z,80.85
2023-01-19T11:33:43.659Z,81.41
2023-01-19T11:35:04.579Z,80.33
2023-01-19T11:35:43.556Z,80.23
2023-01-19T11:36:43.547Z,80.85
2023-01-19T11:37:43.534Z,80.65
2023-01-19T11:38:43.536Z,80.75
2023-01-19T11:39:43.501Z,80.85
2023-01-19T11:41:04.497Z,80.65
2023-01-19T11:41:43.495Z,80.13
2023-01-19T11:42:43.464Z,80.61
2023-01-19T11:43:48.944Z,80.09
2023-01-19T11:44:43.437Z,80.51
2023-01-19T11:45:43.424Z,80.40
2023-01-19T11:47:04.431Z,80.19
2023-01-19T11:47:43.395Z,80.30
2023-01-19T11:48:43.381Z,79.98
2023-01-19T11:49:43.364Z,79.77
2023-01-19T11:50:43.355Z,80.19
2023-01-19T11:51:43.336Z,78.83
2023-01-19T11:53:04.332Z,79.77
2023-01-19T11:53:43.308Z,79.46
2023-01-19T11:54:43.312Z,79.77
2023-01-19T11:55:43.283Z,79.74
2023-01-19T11:56:43.270Z,79.74
2023-01-19T11:57:43.255Z,79.22
2023-01-19T11:59:04.249Z,79.01
2023-01-19T11:59:43.236Z,79.53
2023-01-19T12:00:43.215Z,79.53
2023-01-19T12:01:43.196Z,78.38
2023-01-19T12:02:43.218Z,78.28
2023-01-19T12:03:43.228Z,78.91
2023-01-19T12:05:04.167Z,78.91
2023-01-19T12:05:43.154Z,78.91
2023-01-19T12:06:43.144Z,79.43
2023-01-19T12:07:43.114Z,78.66
2023-01-19T12:08:43.107Z,78.38
2023-01-19T12:09:43.101Z,79.70
2023-01-19T12:11:04.085Z,78.34
2023-01-19T12:11:43.076Z,78.77
2023-01-19T12:12:43.064Z,78.56
2023-01-19T12:13:43.031Z,78.80
2023-01-19T12:14:43.031Z,78.80
2023-01-19T12:15:43.014Z,78.87
2023-01-19T12:17:03.997Z,78.45
2023-01-19T12:17:42.982Z,79.18
2023-01-19T12:18:42.987Z,78.66
2023-01-19T12:19:42.955Z,79.18
2023-01-19T12:20:42.938Z,78.56
2023-01-19T12:21:42.928Z,77.83
2023-01-19T12:23:03.935Z,78.77
2023-01-19T12:23:42.902Z,77.31
2023-01-19T12:24:42.887Z,77.83
2023-01-19T12:25:42.908Z,77.62
2023-01-19T12:26:42.870Z,77.79
2023-01-19T12:27:42.851Z,77.48
2023-01-19T12:29:03.836Z,77.41
2023-01-19T12:29:43.176Z,77.27
2023-01-19T12:30:42.881Z,78.00
2023-01-19T12:31:43.124Z,78.42
2023-01-19T12:32:42.781Z,78.94
2023-01-19T12:33:42.772Z,78.52
2023-01-19T12:35:03.773Z,78.52
2023-01-19T12:35:42.734Z,77.89
2023-01-19T12:36:42.722Z,78.20
2023-01-19T12:37:42.711Z,78.52
2023-01-19T12:38:42.706Z,78.00
2023-01-19T12:39:42.692Z,77.17
2023-01-19T12:41:03.679Z,77.06
2023-01-19T12:41:42.661Z,77.17
2023-01-19T12:42:42.646Z,77.69
2023-01-19T12:43:42.625Z,77.79
2023-01-19T12:44:42.613Z,78.42
2023-01-19T12:45:42.603Z,78.20
2023-01-19T12:47:03.604Z,78.63
2023-01-19T12:47:42.570Z,77.69
2023-01-19T12:48:42.562Z,77.69
2023-01-19T12:49:42.547Z,77.58
2023-01-19T12:50:42.541Z,77.79
2023-01-19T12:51:42.522Z,77.69
2023-01-19T12:53:03.520Z,77.17